createdAt,value
2022-09-04T00:02:13.159Z,19.80
2022-09-04T00:04:50.037Z,19.80
2022-09-04T00:07:25.569Z,19.70
2022-09-04T00:10:09.648Z,19.80
2022-09-04T00:12:46.629Z,19.70
2022-09-04T00:15:20.562Z,19.70
2022-09-04T00:17:55.873Z,19.70
2022-09-04T00:20:35.397Z,19.60
2022-09-04T00:23:10.244Z,19.60
2022-09-04T00:25:45.342Z,19.60
2022-09-04T00:28:20.851Z,19.60
2022-09-04T00:30:56.328Z,19.60
2022-09-04T00:33:32.211Z,19.50
2022-09-04T00:36:04.513Z,19.50
2022-09-04T00:38:41.331Z,19.40
2022-09-04T00:41:17.023Z,19.40
2022-09-04T00:44:04.844Z,19.40
2022-09-04T00:46:53.228Z,19.30
2022-09-04T00:49:50.873Z,19.40
2022-09-04T00:52:36.579Z,19.40
2022-09-04T00:55:21.894Z,19.30
2022-09-04T00:58:42.685Z,19.30
2022-09-04T01:01:15.509Z,19.20
2022-09-04T01:04:24.522Z,19.10
2022-09-04T01:07:10.012Z,19.10
2022-09-04T01:09:57.545Z,19.10
2022-09-04T01:12:37.507Z,19.10
2022-09-04T01:15:14.321Z,19.10
2022-09-04T01:17:52.324Z,19.00
2022-09-04T01:20:34.588Z,19.00
2022-09-04T01:23:22.950Z,19.00
2022-09-04T01:26:01.924Z,19.00
2022-09-04T01:28:36.304Z,19.00
2022-09-04T01:31:13.580Z,19.00
2022-09-04T01:33:48.719Z,19.00
2022-09-04T01:36:22.725Z,19.00
2022-09-04T01:38:53.457Z,19.00
2022-09-04T01:41:27.840Z,18.90
2022-09-04T01:43:55.911Z,19.00
2022-09-04T01:46:47.054Z,18.90
2022-09-04T01:49:25.274Z,19.00
2022-09-04T01:52:11.840Z,19.00
2022-09-04T01:54:49.810Z,18.90
2022-09-04T01:57:31.071Z,18.90
2022-09-04T02:00:09.505Z,19.00
2022-09-04T02:02:55.575Z,18.90
2022-09-04T02:05:31.044Z,18.90
2022-09-04T02:08:09.808Z,18.90
2022-09-04T02:10:45.411Z,18.90
2022-09-04T02:13:23.153Z,18.90
2022-09-04T02:16:05.992Z,18.90
2022-09-04T02:18:45.559Z,18.90
2022-09-04T02:21:24.087Z,18.90
2022-09-04T02:24:02.456Z,18.80
2022-09-04T02:26:35.102Z,18.80
2022-09-04T02:29:11.960Z,18.80
2022-09-04T02:31:49.430Z,18.80
2022-09-04T02:34:25.192Z,18.80
2022-09-04T02:36:59.474Z,18.80
2022-09-04T02:39:40.637Z,18.80
2022-09-04T02:42:19.671Z,18.80
2022-09-04T02:45:02.066Z,18.80
2022-09-04T02:47:34.804Z,18.80
2022-09-04T02:50:12.884Z,18.80
2022-09-04T02:52:59.611Z,18.80
2022-09-04T02:55:44.493Z,18.80
2022-09-04T02:58:23.918Z,18.70
2022-09-04T03:01:02.935Z,18.70
2022-09-04T03:03:38.620Z,18.70
2022-09-04T03:06:11.356Z,18.70
2022-09-04T03:08:45.317Z,18.70
2022-09-04T03:11:19.061Z,18.70
2022-09-04T03:13:53.957Z,18.70
2022-09-04T03:16:30.407Z,18.70
2022-09-04T03:19:08.496Z,18.70
2022-09-04T03:21:42.420Z,18.70
2022-09-04T03:24:14.956Z,18.70
2022-09-04T03:26:45.325Z,18.70
2022-09-04T03:29:22.277Z,18.70
2022-09-04T03:31:59.498Z,18.70
2022-09-04T03:34:43.458Z,18.70
2022-09-04T03:37:27.502Z,18.60
2022-09-04T03:40:09.556Z,18.60
2022-09-04T03:42:51.428Z,18.60
2022-09-04T03:45:29.370Z,18.60
2022-09-04T03:48:14.685Z,18.60
2022-09-04T03:50:51.367Z,18.50
2022-09-04T03:53:31.151Z,18.50
2022-09-04T03:56:24.912Z,18.50
2022-09-04T03:59:02.808Z,18.60
2022-09-04T04:01:40.905Z,18.50
2022-09-04T04:04:39.309Z,18.50
2022-09-04T04:07:19.986Z,18.50
2022-09-04T04:10:02.537Z,18.50
2022-09-04T04:12:49.933Z,18.50
2022-09-04T04:15:28.840Z,18.40
2022-09-04T04:18:14.014Z,18.40
2022-09-04T04:20:54.442Z,18.40
2022-09-04T04:23:58.042Z,18.40
2022-09-04T04:26:40.521Z,18.40
2022-09-04T04:29:26.690Z,18.30
2022-09-04T04:32:13.776Z,18.30
2022-09-04T04:34:56.281Z,18.60
2022-09-04T04:37:37.805Z,18.30
2022-09-04T04:40:16.388Z,18.20
2022-09-04T04:42:51.340Z,18.20
2022-09-04T04:45:46.150Z,18.20
2022-09-04T04:48:47.644Z,18.10
2022-09-04T04:51:50.058Z,18.10
2022-09-04T04:54:34.411Z,18.10
2022-09-04T04:57:14.064Z,18.10
2022-09-04T04:59:49.121Z,18.00
2022-09-04T05:02:25.580Z,18.00
2022-09-04T05:05:02.740Z,18.00
2022-09-04T05:07:37.349Z,17.90
2022-09-04T05:10:18.588Z,17.90
2022-09-04T05:13:08.682Z,17.90
2022-09-04T05:16:05.194Z,17.90
2022-09-04T05:18:33.067Z,17.90
2022-09-04T05:21:10.132Z,17.90
2022-09-04T05:23:45.440Z,17.90
2022-09-04T05:26:28.500Z,17.90
2022-09-04T05:29:00.984Z,17.80
2022-09-04T05:31:38.729Z,17.90
2022-09-04T05:34:13.614Z,17.90
2022-09-04T05:36:50.961Z,17.90
2022-09-04T05:39:29.581Z,17.90
2022-09-04T05:42:13.444Z,18.00
2022-09-04T05:44:58.836Z,18.10
2022-09-04T05:47:42.111Z,18.20
2022-09-04T05:50:34.749Z,18.30
2022-09-04T05:53:28.237Z,18.40
2022-09-04T05:56:14.874Z,18.40
2022-09-04T05:59:05.967Z,18.40
2022-09-04T06:01:53.661Z,18.50
2022-09-04T06:04:43.456Z,18.60
2022-09-04T06:07:17.044Z,18.70
2022-09-04T06:09:59.472Z,18.80
2022-09-04T06:12:57.616Z,19.00
2022-09-04T06:15:39.452Z,19.20
2022-09-04T06:18:19.892Z,19.60
2022-09-04T06:21:16.288Z,20.40
2022-09-04T06:24:04.258Z,21.20
2022-09-04T06:26:45.899Z,22.10
2022-09-04T06:29:29.277Z,22.60
2022-09-04T06:32:37.107Z,22.70
2022-09-04T06:35:16.415Z,22.80
2022-09-04T06:37:55.566Z,22.60
2022-09-04T06:40:35.064Z,22.50
2022-09-04T06:43:15.007Z,22.30
2022-09-04T06:45:51.386Z,22.10
2022-09-04T06:48:31.179Z,21.90
2022-09-04T06:51:09.063Z,21.70
2022-09-04T06:53:42.494Z,21.60
2022-09-04T06:56:27.922Z,21.40
2022-09-04T06:59:11.193Z,21.40
2022-09-04T07:01:46.686Z,21.30
2022-09-04T07:04:26.846Z,21.20
2022-09-04T07:07:05.789Z,21.20
2022-09-04T07:09:39.553Z,21.20
2022-09-04T07:12:32.890Z,21.20
2022-09-04T07:15:33.186Z,21.20
2022-09-04T07:18:10.179Z,21.20
2022-09-04T07:20:47.826Z,21.30
2022-09-04T07:23:25.445Z,21.30
2022-09-04T07:26:02.502Z,21.40
2022-09-04T07:28:52.791Z,21.50
2022-09-04T07:31:26.826Z,21.60
2022-09-04T07:34:02.946Z,21.80
2022-09-04T07:36:40.917Z,21.90
2022-09-04T07:39:17.330Z,22.10
2022-09-04T07:41:50.318Z,22.20
2022-09-04T07:44:24.336Z,22.20
2022-09-04T07:47:00.191Z,22.40
2022-09-04T07:49:35.588Z,22.40
2022-09-04T07:52:14.990Z,22.50
2022-09-04T07:55:11.492Z,22.50
2022-09-04T07:58:12.865Z,22.60
2022-09-04T08:00:53.635Z,22.70
2022-09-04T08:03:53.991Z,22.70
2022-09-04T08:06:30.915Z,22.80
2022-09-04T08:09:24.154Z,22.80
2022-09-04T08:12:15.008Z,22.90
2022-09-04T08:14:54.377Z,23.00
2022-09-04T08:17:37.263Z,23.10
2022-09-04T08:20:12.712Z,23.20
2022-09-04T08:22:54.371Z,23.30
2022-09-04T08:25:29.646Z,23.20
2022-09-04T08:28:17.523Z,23.30
2022-09-04T08:30:55.816Z,23.40
2022-09-04T08:33:40.329Z,23.40
2022-09-04T08:36:16.991Z,23.50
2022-09-04T08:38:56.643Z,23.60
2022-09-04T08:42:15.743Z,23.70
2022-09-04T08:45:33.015Z,23.80
2022-09-04T08:48:46.255Z,23.70
2022-09-04T08:51:52.114Z,23.80
2022-09-04T08:54:55.165Z,23.90
2022-09-04T08:58:05.583Z,23.90
2022-09-04T09:00:47.034Z,24.00
2022-09-04T09:03:43.107Z,24.10
2022-09-04T09:06:39.190Z,24.20
2022-09-04T09:09:36.493Z,24.30
2022-09-04T09:12:41.659Z,24.40
2022-09-04T09:15:48.775Z,24.40
2022-09-04T09:18:35.918Z,24.50
2022-09-04T09:21:09.158Z,24.60
2022-09-04T09:23:59.747Z,24.70
2022-09-04T09:26:29.512Z,24.80
2022-09-04T09:29:39.988Z,24.90
2022-09-04T09:32:37.026Z,24.90
2022-09-04T09:35:57.871Z,24.90
2022-09-04T09:38:49.073Z,25.00
2022-09-04T09:42:02.522Z,25.10
2022-09-04T09:45:28.773Z,25.20
2022-09-04T09:48:27.076Z,25.20
2022-09-04T09:51:23.991Z,25.30
2022-09-04T09:54:24.384Z,25.30
2022-09-04T09:57:33.474Z,25.40
2022-09-04T10:00:15.066Z,25.40
2022-09-04T10:03:24.382Z,25.50
2022-09-04T10:06:27.789Z,25.50
2022-09-04T10:09:23.715Z,25.50
2022-09-04T10:12:27.020Z,25.60
2022-09-04T10:15:46.459Z,25.60
2022-09-04T10:18:52.460Z,25.70
2022-09-04T10:21:49.820Z,25.80
2022-09-04T10:24:40.625Z,25.80
2022-09-04T10:27:43.195Z,25.90
2022-09-04T10:30:18.265Z,25.90
2022-09-04T10:33:26.292Z,26.00
2022-09-04T10:36:04.273Z,26.10
2022-09-04T10:39:00.379Z,26.10
2022-09-04T10:41:44.702Z,26.10
2022-09-04T10:44:23.149Z,26.20
2022-09-04T10:47:05.260Z,26.20
2022-09-04T10:50:08.206Z,26.20
2022-09-04T10:53:05.868Z,26.20
2022-09-04T10:55:49.745Z,26.30
2022-09-04T10:58:33.357Z,26.30
2022-09-04T11:01:23.439Z,26.30
2022-09-04T11:04:45.816Z,26.40
2022-09-04T11:07:52.568Z,26.50
2022-09-04T11:10:34.874Z,26.50
2022-09-04T11:13:51.418Z,26.60
2022-09-04T11:16:35.903Z,26.70
2022-09-04T11:19:34.900Z,26.70
2022-09-04T11:22:34.868Z,26.80
2022-09-04T11:25:53.706Z,26.80
2022-09-04T11:28:57.674Z,26.90
2022-09-04T11:31:58.447Z,27.00
2022-09-04T11:35:14.215Z,27.10
2022-09-04T11:38:18.577Z,27.20
2022-09-04T11:41:24.498Z,27.30
2022-09-04T11:44:25.207Z,27.40
2022-09-04T11:47:20.710Z,27.50
2022-09-04T11:50:24.245Z,27.50
2022-09-04T11:53:19.774Z,27.60
2022-09-04T11:56:10.111Z,27.70
2022-09-04T11:59:06.750Z,27.60
2022-09-04T12:01:58.755Z,27.70
2022-09-04T12:04:50.083Z,27.70
2022-09-04T12:07:42.734Z,27.60
2022-09-04T12:10:44.070Z,27.60
2022-09-04T12:13:54.070Z,27.60
2022-09-04T12:16:50.875Z,27.60
2022-09-04T12:19:45.513Z,27.60
2022-09-04T12:22:38.553Z,27.60
2022-09-04T12:25:21.878Z,27.60
2022-09-04T12:28:26.630Z,27.60
2022-09-04T12:31:08.881Z,27.70
2022-09-04T12:34:07.133Z,27.70
2022-09-04T12:37:13.486Z,27.70
2022-09-04T12:40:10.186Z,27.70
2022-09-04T12:42:46.513Z,27.60
2022-09-04T12:45:23.218Z,27.60
2022-09-04T12:47:59.926Z,27.70
2022-09-04T12:50:39.861Z,27.80
2022-09-04T12:53:25.651Z,27.80
2022-09-04T12:56:02.622Z,27.80
2022-09-04T12:58:43.190Z,27.80
2022-09-04T13:01:17.269Z,27.80
2022-09-04T13:03:56.296Z,27.80
2022-09-04T13:06:35.776Z,27.80
2022-09-04T13:09:13.182Z,27.80
2022-09-04T13:11:53.501Z,27.80
2022-09-04T13:14:39.005Z,27.90
2022-09-04T13:17:17.763Z,27.80
2022-09-04T13:19:53.300Z,27.90
2022-09-04T13:22:31.244Z,27.90
2022-09-04T13:25:08.568Z,28.00
2022-09-04T13:27:51.055Z,28.10
2022-09-04T13:30:24.354Z,28.10
2022-09-04T13:33:06.786Z,28.10
2022-09-04T13:35:44.333Z,28.20
2022-09-04T13:38:44.551Z,28.30
2022-09-04T13:41:42.916Z,28.30
2022-09-04T13:44:55.478Z,28.40
2022-09-04T13:47:32.177Z,28.40
2022-09-04T13:50:10.011Z,28.40
2022-09-04T13:52:44.845Z,28.50
2022-09-04T13:55:20.139Z,28.40
2022-09-04T13:57:57.477Z,28.50
2022-09-04T14:00:28.140Z,28.50
2022-09-04T14:03:00.765Z,28.50
2022-09-04T14:05:32.955Z,28.50
2022-09-04T14:08:06.965Z,28.50
2022-09-04T14:11:07.735Z,28.50
2022-09-04T14:14:11.494Z,28.50
2022-09-04T14:16:41.663Z,28.50
2022-09-04T14:19:24.394Z,28.50
2022-09-04T14:22:15.018Z,28.50
2022-09-04T14:24:51.645Z,28.50
2022-09-04T14:27:28.313Z,28.50
2022-09-04T14:30:04.995Z,28.40
2022-09-04T14:32:45.428Z,28.40
2022-09-04T14:35:19.929Z,28.40
2022-09-04T14:38:07.798Z,28.40
2022-09-04T14:40:39.375Z,28.50
2022-09-04T14:43:19.695Z,28.50
2022-09-04T14:46:06.876Z,28.50
2022-09-04T14:48:40.436Z,28.50
2022-09-04T14:51:19.553Z,28.50
2022-09-04T14:53:49.782Z,28.60
2022-09-04T14:56:30.071Z,28.60
2022-09-04T14:59:08.380Z,28.60
2022-09-04T15:01:40.227Z,28.60
2022-09-04T15:04:15.878Z,28.60
2022-09-04T15:07:10.342Z,28.60
2022-09-04T15:09:43.095Z,28.70
2022-09-04T15:12:26.851Z,28.70
2022-09-04T15:15:05.462Z,28.70
2022-09-04T15:17:37.397Z,28.70
2022-09-04T15:20:11.511Z,28.60
2022-09-04T15:22:48.543Z,28.60
2022-09-04T15:25:58.791Z,28.60
2022-09-04T15:28:34.441Z,28.70
2022-09-04T15:31:16.066Z,28.60
2022-09-04T15:33:46.383Z,28.60
2022-09-04T15:36:21.957Z,28.60
2022-09-04T15:38:53.460Z,28.60
2022-09-04T15:41:35.287Z,28.70
2022-09-04T15:44:13.863Z,28.70
2022-09-04T15:46:49.775Z,28.70
2022-09-04T15:49:28.244Z,28.60
2022-09-04T15:52:10.545Z,28.50
2022-09-04T15:55:01.149Z,28.40
2022-09-04T15:57:36.010Z,28.30
2022-09-04T16:00:08.947Z,28.20
2022-09-04T16:02:54.508Z,28.10
2022-09-04T16:05:28.129Z,28.00
2022-09-04T16:08:03.865Z,28.10
2022-09-04T16:10:47.572Z,28.00
2022-09-04T16:13:46.806Z,27.90
2022-09-04T16:16:22.880Z,27.90
2022-09-04T16:19:04.277Z,27.80
2022-09-04T16:21:45.350Z,27.70
2022-09-04T16:24:16.536Z,27.60
2022-09-04T16:26:50.111Z,27.50
2022-09-04T16:29:32.752Z,27.40
2022-09-04T16:32:08.194Z,27.40
2022-09-04T16:34:44.410Z,27.30
2022-09-04T16:37:17.361Z,27.30
2022-09-04T16:39:57.283Z,27.30
2022-09-04T16:42:27.961Z,27.30
2022-09-04T16:45:01.712Z,27.40
2022-09-04T16:47:41.190Z,27.40
2022-09-04T16:50:16.148Z,27.40
2022-09-04T16:53:13.451Z,27.40
2022-09-04T16:55:48.313Z,27.40
2022-09-04T16:58:35.204Z,27.30
2022-09-04T17:01:14.723Z,27.30
2022-09-04T17:04:12.653Z,27.20
2022-09-04T17:07:02.438Z,27.10
2022-09-04T17:10:02.679Z,27.10
2022-09-04T17:12:43.107Z,27.00
2022-09-04T17:15:22.568Z,26.90
2022-09-04T17:17:53.801Z,26.90
2022-09-04T17:20:47.116Z,26.80
2022-09-04T17:28:57.133Z,26.70
2022-09-04T17:29:15.421Z,26.60
2022-09-04T17:29:34.280Z,26.50
2022-09-04T17:32:00.488Z,26.40
2022-09-04T17:40:35.641Z,26.20
2022-09-04T17:40:36.455Z,26.10
2022-09-04T17:41:36.176Z,26.00
2022-09-04T17:44:02.836Z,25.80
2022-09-04T17:46:36.598Z,25.70
2022-09-04T17:49:34.242Z,25.60
2022-09-04T17:52:07.239Z,25.60
2022-09-04T17:54:42.007Z,25.50
2022-09-04T17:57:15.915Z,25.30
2022-09-04T17:59:49.300Z,25.20
2022-09-04T18:02:21.780Z,25.10
2022-09-04T18:04:56.400Z,25.00
2022-09-04T18:08:08.060Z,25.00
2022-09-04T18:10:25.587Z,24.90
2022-09-04T18:13:05.746Z,24.80
2022-09-04T18:15:41.305Z,24.70
2022-09-04T18:18:13.954Z,24.60
2022-09-04T18:20:46.163Z,24.50
2022-09-04T18:23:51.300Z,24.40
2022-09-04T18:26:40.088Z,24.40
2022-09-04T18:34:06.098Z,24.20
2022-09-04T18:37:06.805Z,24.20
2022-09-04T18:37:24.928Z,24.10
2022-09-04T18:38:20.460Z,24.00
2022-09-04T18:41:48.088Z,23.90
2022-09-04T18:50:33.642Z,23.80
2022-09-04T18:50:38.515Z,23.70
2022-09-04T18:50:40.225Z,23.90
2022-09-04T18:52:19.837Z,23.60
2022-09-04T18:54:52.091Z,23.60
2022-09-04T18:57:28.023Z,23.60
2022-09-04T19:00:07.928Z,23.40
2022-09-04T19:02:47.474Z,23.40
2022-09-04T19:05:24.204Z,23.30
2022-09-04T19:07:55.355Z,23.30
2022-09-04T19:10:26.677Z,23.20
2022-09-04T19:13:01.806Z,23.10
2022-09-04T19:15:46.467Z,23.10
2022-09-04T19:18:23.447Z,23.10
2022-09-04T19:20:56.379Z,23.00
2022-09-04T19:23:30.945Z,22.90
2022-09-04T19:26:03.017Z,22.90
2022-09-04T19:28:45.664Z,22.80
2022-09-04T19:31:31.218Z,22.80
2022-09-04T19:34:08.976Z,22.70
2022-09-04T19:36:43.688Z,22.60
2022-09-04T19:45:54.251Z,22.60
2022-09-04T19:46:08.504Z,22.50
2022-09-04T19:46:15.956Z,22.50
2022-09-04T19:48:18.893Z,22.40
2022-09-04T19:53:36.846Z,22.40
2022-09-04T19:53:50.094Z,22.30
2022-09-04T19:56:28.433Z,22.20
2022-09-04T19:59:03.386Z,22.20
2022-09-04T20:01:39.982Z,22.10
2022-09-04T20:04:12.370Z,22.10
2022-09-04T20:06:48.998Z,22.10
2022-09-04T20:09:21.688Z,22.00
2022-09-04T20:11:55.055Z,21.90
2022-09-04T20:14:28.585Z,21.90
2022-09-04T20:17:08.345Z,21.90
2022-09-04T20:19:40.608Z,21.80
2022-09-04T20:22:26.047Z,21.80
2022-09-04T20:25:01.958Z,21.70
2022-09-04T20:27:35.774Z,21.70
2022-09-04T20:30:11.592Z,21.70
2022-09-04T20:32:46.927Z,21.70
2022-09-04T20:35:33.218Z,21.60
2022-09-04T20:38:12.484Z,21.60
2022-09-04T20:40:43.240Z,21.60
2022-09-04T20:43:24.333Z,21.50
2022-09-04T20:52:43.477Z,21.40
2022-09-04T20:52:56.062Z,21.40
2022-09-04T20:52:57.619Z,21.30
2022-09-04T20:54:52.470Z,21.30
2022-09-04T21:03:11.195Z,21.30
2022-09-04T21:03:19.858Z,21.20
2022-09-04T21:03:33.982Z,21.10
2022-09-04T21:06:35.629Z,21.10
2022-09-04T21:09:53.392Z,21.10
2022-09-04T21:12:33.308Z,21.00
2022-09-04T21:15:09.395Z,21.00
2022-09-04T21:18:01.372Z,21.00
2022-09-04T21:20:59.298Z,21.00
2022-09-04T21:24:02.989Z,20.90
2022-09-04T21:26:55.125Z,20.90
2022-09-04T21:29:58.091Z,20.90
2022-09-04T21:32:42.627Z,20.90
2022-09-04T21:35:19.770Z,20.80
2022-09-04T21:37:56.006Z,20.80
2022-09-04T21:40:51.482Z,20.80
2022-09-04T21:43:50.509Z,20.80
2022-09-04T21:46:43.596Z,20.80
2022-09-04T21:49:35.605Z,20.70
2022-09-04T21:52:16.066Z,20.70
2022-09-04T21:59:11.543Z,20.70
2022-09-04T22:02:36.258Z,20.70
2022-09-04T22:02:38.284Z,20.60
2022-09-04T22:04:09.351Z,20.60
2022-09-04T22:08:20.452Z,20.60
2022-09-04T22:13:29.338Z,20.60
2022-09-04T22:13:42.342Z,20.60
2022-09-04T22:15:58.962Z,20.60
2022-09-04T22:18:51.088Z,20.50
2022-09-04T22:21:27.846Z,20.50
2022-09-04T22:24:33.245Z,20.50
2022-09-04T22:28:08.109Z,20.40
2022-09-04T22:30:51.699Z,20.40
2022-09-04T22:34:14.360Z,20.30
2022-09-04T22:37:00.846Z,20.30
2022-09-04T22:39:55.235Z,20.30
2022-09-04T22:42:44.733Z,20.30
2022-09-04T22:45:55.369Z,20.30
2022-09-04T22:48:49.172Z,20.30
2022-09-04T22:51:44.493Z,20.20
2022-09-04T22:54:25.632Z,20.20
2022-09-04T22:56:57.006Z,20.20
2022-09-04T22:59:58.476Z,20.10
2022-09-04T23:03:08.420Z,20.10
2022-09-04T23:07:57.467Z,20.10
2022-09-04T23:13:42.783Z,20.00
2022-09-04T23:14:03.085Z,19.90
2022-09-04T23:15:36.941Z,19.90
2022-09-04T23:26:15.438Z,19.90
2022-09-04T23:26:45.676Z,19.90
2022-09-04T23:26:46.041Z,19.80
2022-09-04T23:27:36.819Z,19.80
2022-09-04T23:30:18.233Z,19.80
2022-09-04T23:33:32.267Z,19.80
2022-09-04T23:36:08.750Z,19.80
2022-09-04T23:39:03.898Z,19.70
2022-09-04T23:41:52.729Z,19.70
2022-09-04T23:44:41.666Z,19.70
2022-09-04T23:47:48.769Z,19.70
2022-09-04T23:50:31.203Z,19.60
2022-09-04T23:53:07.034Z,19.60
2022-09-04T23:55:50.713Z,19.60
2022-09-04T23:59:11.621Z,19.60
